sensor_id;sensor_type;location;lat;lon;timestamp;P1;durP1;ratioP1;P2;durP2;ratioP2
1613;SDS011;800;48.824;9.346;2024-03-02T00:00:10;13.40;;;11.07;;
1613;SDS011;800;48.824;9.346;2024-03-02T00:02:44;12.40;;;10.70;;
1613;SDS011;800;48.824;9.346;2024-03-02T00:05:11;14.63;;;11.70;;
1613;SDS011;800;48.824;9.346;2024-03-02T00:07:39;13.53;;;10.17;;
1613;SDS011;800;48.824;9.346;2024-03-02T00:10:07;14.80;;;12.50;;
1613;SDS011;800;48.824;9.346;2024-03-02T00:12:35;14.07;;;11.77;;
1613;SDS011;800;48.824;9.346;2024-03-02T00:15:01;14.80;;;11.00;;
1613;SDS011;800;48.824;9.346;2024-03-02T00:17:52;12.93;;;10.60;;
1613;SDS011;800;48.824;9.346;2024-03-02T00:20:18;14.07;;;11.10;;
1613;SDS011;800;48.824;9.346;2024-03-02T00:22:47;11.43;;;10.00;;
1613;SDS011;800;48.824;9.346;2024-03-02T00:25:13;12.23;;;10.93;;
1613;SDS011;800;48.824;9.346;2024-03-02T00:27:39;12.60;;;10.73;;
1613;SDS011;800;48.824;9.346;2024-03-02T00:30:08;11.90;;;10.30;;
1613;SDS011;800;48.824;9.346;2024-03-02T00:33:02;12.83;;;11.30;;
1613;SDS011;800;48.824;9.346;2024-03-02T00:35:32;14.57;;;10.83;;
1613;SDS011;800;48.824;9.346;2024-03-02T00:37:57;14.30;;;10.83;;
1613;SDS011;800;48.824;9.346;2024-03-02T00:40:25;13.23;;;11.27;;
1613;SDS011;800;48.824;9.346;2024-03-02T00:42:54;13.93;;;10.70;;
1613;SDS011;800;48.824;9.346;2024-03-02T00:45:21;13.53;;;10.40;;
1613;SDS011;800;48.824;9.346;2024-03-02T00:47:47;12.03;;;10.20;;
1613;SDS011;800;48.824;9.346;2024-03-02T00:50:12;12.70;;;11.30;;
1613;SDS011;800;48.824;9.346;2024-03-02T00:52:39;14.83;;;11.73;;
1613;SDS011;800;48.824;9.346;2024-03-02T00:55:06;14.63;;;10.50;;
1613;SDS011;800;48.824;9.346;2024-03-02T00:57:32;12.10;;;10.00;;
1613;SDS011;800;48.824;9.346;2024-03-02T00:59:59;12.03;;;9.70;;
1613;SDS011;800;48.824;9.346;2024-03-02T01:02:25;13.03;;;11.17;;
1613;SDS011;800;48.824;9.346;2024-03-02T01:04:51;12.03;;;10.33;;
1613;SDS011;800;48.824;9.346;2024-03-02T01:07:17;12.97;;;10.30;;
1613;SDS011;800;48.824;9.346;2024-03-02T01:09:43;12.40;;;10.67;;
1613;SDS011;800;48.824;9.346;2024-03-02T01:12:08;13.10;;;10.13;;
1613;SDS011;800;48.824;9.346;2024-03-02T01:14:34;14.30;;;11.07;;
1613;SDS011;800;48.824;9.346;2024-03-02T01:17:00;14.60;;;12.03;;
1613;SDS011;800;48.824;9.346;2024-03-02T01:19:28;13.70;;;10.97;;
1613;SDS011;800;48.824;9.346;2024-03-02T01:21:54;11.80;;;9.60;;
1613;SDS011;800;48.824;9.346;2024-03-02T01:24:19;13.47;;;11.07;;
1613;SDS011;800;48.824;9.346;2024-03-02T01:26:45;13.50;;;10.77;;
1613;SDS011;800;48.824;9.346;2024-03-02T01:29:10;13.50;;;11.47;;
1613;SDS011;800;48.824;9.346;2024-03-02T01:31:36;14.70;;;11.37;;
1613;SDS011;800;48.824;9.346;2024-03-02T01:34:02;13.83;;;11.23;;
1613;SDS011;800;48.824;9.346;2024-03-02T01:36:27;12.03;;;10.30;;
1613;SDS011;800;48.824;9.346;2024-03-02T01:38:53;13.00;;;10.77;;
1613;SDS011;800;48.824;9.346;2024-03-02T01:41:18;13.70;;;11.67;;
1613;SDS011;800;48.824;9.346;2024-03-02T01:43:44;12.43;;;10.00;;
1613;SDS011;800;48.824;9.346;2024-03-02T01:46:09;12.57;;;10.47;;
1613;SDS011;800;48.824;9.346;2024-03-02T01:48:35;14.10;;;11.07;;
1613;SDS011;800;48.824;9.346;2024-03-02T01:51:01;12.00;;;10.70;;
1613;SDS011;800;48.824;9.346;2024-03-02T01:53:26;11.80;;;9.67;;
1613;SDS011;800;48.824;9.346;2024-03-02T01:55:53;13.87;;;11.60;;
1613;SDS011;800;48.824;9.346;2024-03-02T01:58:18;15.67;;;12.03;;
1613;SDS011;800;48.824;9.346;2024-03-02T02:00:44;10.80;;;9.63;;
1613;SDS011;800;48.824;9.346;2024-03-02T02:03:10;13.70;;;11.00;;
1613;SDS011;800;48.824;9.346;2024-03-02T02:05:36;14.10;;;11.20;;
1613;SDS011;800;48.824;9.346;2024-03-02T02:08:02;13.90;;;9.93;;
1613;SDS011;800;48.824;9.346;2024-03-02T02:10:28;12.70;;;10.40;;
1613;SDS011;800;48.824;9.346;2024-03-02T02:12:53;12.43;;;10.50;;
1613;SDS011;800;48.824;9.346;2024-03-02T02:15:28;14.83;;;11.13;;
1613;SDS011;800;48.824;9.346;2024-03-02T02:17:56;12.73;;;11.37;;
1613;SDS011;800;48.824;9.346;2024-03-02T02:20:22;13.80;;;11.10;;
1613;SDS011;800;48.824;9.346;2024-03-02T02:23:02;14.30;;;11.67;;
1613;SDS011;800;48.824;9.346;2024-03-02T02:25:29;14.03;;;11.30;;
1613;SDS011;800;48.824;9.346;2024-03-02T02:27:55;12.47;;;10.63;;
1613;SDS011;800;48.824;9.346;2024-03-02T02:30:28;11.63;;;10.40;;
1613;SDS011;800;48.824;9.346;2024-03-02T02:32:56;13.13;;;10.93;;
1613;SDS011;800;48.824;9.346;2024-03-02T02:35:22;13.37;;;10.47;;
1613;SDS011;800;48.824;9.346;2024-03-02T02:37:49;13.37;;;11.40;;
1613;SDS011;800;48.824;9.346;2024-03-02T02:40:15;14.83;;;11.90;;
1613;SDS011;800;48.824;9.346;2024-03-02T02:42:41;12.77;;;11.37;;
1613;SDS011;800;48.824;9.346;2024-03-02T02:45:07;22.07;;;11.63;;
1613;SDS011;800;48.824;9.346;2024-03-02T02:47:33;12.30;;;10.83;;
1613;SDS011;800;48.824;9.346;2024-03-02T02:50:03;13.43;;;12.00;;
1613;SDS011;800;48.824;9.346;2024-03-02T02:52:32;14.60;;;11.60;;
1613;SDS011;800;48.824;9.346;2024-03-02T02:55:02;15.63;;;12.23;;
1613;SDS011;800;48.824;9.346;2024-03-02T02:57:28;13.53;;;11.10;;
1613;SDS011;800;48.824;9.346;2024-03-02T02:59:56;13.77;;;10.83;;
1613;SDS011;800;48.824;9.346;2024-03-02T03:02:22;14.47;;;11.00;;
1613;SDS011;800;48.824;9.346;2024-03-02T03:04:47;14.20;;;11.17;;
1613;SDS011;800;48.824;9.346;2024-03-02T03:07:13;17.00;;;11.30;;
1613;SDS011;800;48.824;9.346;2024-03-02T03:09:38;14.63;;;11.40;;
1613;SDS011;800;48.824;9.346;2024-03-02T03:12:04;15.63;;;11.70;;
1613;SDS011;800;48.824;9.346;2024-03-02T03:14:30;14.53;;;10.97;;
1613;SDS011;800;48.824;9.346;2024-03-02T03:16:56;12.80;;;10.40;;
1613;SDS011;800;48.824;9.346;2024-03-02T03:19:21;11.67;;;10.43;;
1613;SDS011;800;48.824;9.346;2024-03-02T03:21:47;14.37;;;11.37;;
1613;SDS011;800;48.824;9.346;2024-03-02T03:24:12;12.70;;;10.03;;
1613;SDS011;800;48.824;9.346;2024-03-02T03:26:38;11.83;;;10.33;;
1613;SDS011;800;48.824;9.346;2024-03-02T03:29:03;14.57;;;11.30;;
1613;SDS011;800;48.824;9.346;2024-03-02T03:31:29;15.63;;;11.97;;
1613;SDS011;800;48.824;9.346;2024-03-02T03:33:55;14.40;;;9.87;;
1613;SDS011;800;48.824;9.346;2024-03-02T03:36:20;12.13;;;9.90;;
1613;SDS011;800;48.824;9.346;2024-03-02T03:38:46;14.83;;;10.30;;
1613;SDS011;800;48.824;9.346;2024-03-02T03:41:11;10.87;;;9.77;;
1613;SDS011;800;48.824;9.346;2024-03-02T03:43:37;14.80;;;10.10;;
1613;SDS011;800;48.824;9.346;2024-03-02T03:46:02;13.63;;;10.83;;
1613;SDS011;800;48.824;9.346;2024-03-02T03:48:28;15.10;;;11.33;;
1613;SDS011;800;48.824;9.346;2024-03-02T03:50:55;14.57;;;11.50;;
1613;SDS011;800;48.824;9.346;2024-03-02T03:53:21;15.27;;;11.47;;
1613;SDS011;800;48.824;9.346;2024-03-02T03:55:47;11.90;;;10.30;;
1613;SDS011;800;48.824;9.346;2024-03-02T03:58:14;13.10;;;10.83;;
1613;SDS011;800;48.824;9.346;2024-03-02T04:00:41;13.43;;;10.90;;
1613;SDS011;800;48.824;9.346;2024-03-02T04:03:07;12.90;;;10.00;;
1613;SDS011;800;48.824;9.346;2024-03-02T04:05:33;12.07;;;9.80;;
1613;SDS011;800;48.824;9.346;2024-03-02T04:07:58;13.10;;;10.17;;
1613;SDS011;800;48.824;9.346;2024-03-02T04:10:25;12.80;;;10.30;;
1613;SDS011;800;48.824;9.346;2024-03-02T04:12:50;15.70;;;11.90;;
1613;SDS011;800;48.824;9.346;2024-03-02T04:15:16;11.70;;;10.50;;
1613;SDS011;800;48.824;9.346;2024-03-02T04:17:43;11.93;;;10.23;;
1613;SDS011;800;48.824;9.346;2024-03-02T04:20:09;12.80;;;9.63;;
1613;SDS011;800;48.824;9.346;2024-03-02T04:22:37;10.93;;;9.80;;
1613;SDS011;800;48.824;9.346;2024-03-02T04:25:03;11.13;;;9.20;;
1613;SDS011;800;48.824;9.346;2024-03-02T04:27:32;12.50;;;10.63;;
1613;SDS011;800;48.824;9.346;2024-03-02T04:29:58;13.87;;;11.80;;
1613;SDS011;800;48.824;9.346;2024-03-02T04:32:25;15.17;;;10.57;;
1613;SDS011;800;48.824;9.346;2024-03-02T04:34:51;12.27;;;10.40;;
1613;SDS011;800;48.824;9.346;2024-03-02T04:37:17;12.40;;;10.13;;
1613;SDS011;800;48.824;9.346;2024-03-02T04:39:42;13.47;;;9.70;;
1613;SDS011;800;48.824;9.346;2024-03-02T04:42:08;11.87;;;9.93;;
1613;SDS011;800;48.824;9.346;2024-03-02T04:44:33;13.33;;;9.83;;
1613;SDS011;800;48.824;9.346;2024-03-02T04:46:59;13.90;;;10.43;;
1613;SDS011;800;48.824;9.346;2024-03-02T04:49:25;13.50;;;10.73;;
1613;SDS011;800;48.824;9.346;2024-03-02T04:51:50;12.10;;;10.00;;
1613;SDS011;800;48.824;9.346;2024-03-02T04:54:16;13.33;;;10.77;;
1613;SDS011;800;48.824;9.346;2024-03-02T04:56:42;13.57;;;10.60;;
1613;SDS011;800;48.824;9.346;2024-03-02T04:59:14;15.07;;;9.80;;
1613;SDS011;800;48.824;9.346;2024-03-02T05:01:43;13.00;;;10.20;;
1613;SDS011;800;48.824;9.346;2024-03-02T05:04:09;13.80;;;10.20;;
1613;SDS011;800;48.824;9.346;2024-03-02T05:06:38;13.13;;;9.90;;
1613;SDS011;800;48.824;9.346;2024-03-02T05:09:08;14.33;;;11.20;;
1613;SDS011;800;48.824;9.346;2024-03-02T05:11:34;16.50;;;11.23;;
1613;SDS011;800;48.824;9.346;2024-03-02T05:14:03;15.83;;;11.33;;
1613;SDS011;800;48.824;9.346;2024-03-02T05:16:29;12.27;;;10.43;;
1613;SDS011;800;48.824;9.346;2024-03-02T05:18:58;14.17;;;10.70;;
1613;SDS011;800;48.824;9.346;2024-03-02T05:21:24;13.63;;;10.50;;
1613;SDS011;800;48.824;9.346;2024-03-02T05:23:49;14.97;;;11.33;;
1613;SDS011;800;48.824;9.346;2024-03-02T05:26:15;14.67;;;11.07;;
1613;SDS011;800;48.824;9.346;2024-03-02T05:28:42;17.00;;;12.03;;
1613;SDS011;800;48.824;9.346;2024-03-02T05:31:11;14.50;;;12.50;;
1613;SDS011;800;48.824;9.346;2024-03-02T05:33:39;15.13;;;11.33;;
1613;SDS011;800;48.824;9.346;2024-03-02T05:36:05;14.97;;;12.13;;
1613;SDS011;800;48.824;9.346;2024-03-02T05:38:31;16.40;;;11.13;;
1613;SDS011;800;48.824;9.346;2024-03-02T05:40:57;14.60;;;11.13;;
1613;SDS011;800;48.824;9.346;2024-03-02T05:43:23;18.40;;;12.90;;
1613;SDS011;800;48.824;9.346;2024-03-02T05:45:48;13.30;;;10.87;;
1613;SDS011;800;48.824;9.346;2024-03-02T05:48:14;16.03;;;12.30;;
1613;SDS011;800;48.824;9.346;2024-03-02T05:50:40;18.70;;;12.40;;
1613;SDS011;800;48.824;9.346;2024-03-02T05:53:05;15.60;;;10.53;;
1613;SDS011;800;48.824;9.346;2024-03-02T05:55:31;17.77;;;12.67;;
1613;SDS011;800;48.824;9.346;2024-03-02T05:57:56;16.80;;;11.80;;
1613;SDS011;800;48.824;9.346;2024-03-02T06:00:31;17.83;;;11.97;;
1613;SDS011;800;48.824;9.346;2024-03-02T06:02:57;14.93;;;11.80;;
1613;SDS011;800;48.824;9.346;2024-03-02T06:05:23;16.63;;;13.13;;
1613;SDS011;800;48.824;9.346;2024-03-02T06:07:49;16.77;;;12.10;;
1613;SDS011;800;48.824;9.346;2024-03-02T06:10:15;17.80;;;12.90;;
1613;SDS011;800;48.824;9.346;2024-03-02T06:12:40;18.60;;;12.20;;
1613;SDS011;800;48.824;9.346;2024-03-02T06:15:06;16.90;;;10.70;;
1613;SDS011;800;48.824;9.346;2024-03-02T06:17:32;15.67;;;12.40;;
1613;SDS011;800;48.824;9.346;2024-03-02T06:20:00;17.30;;;10.67;;
1613;SDS011;800;48.824;9.346;2024-03-02T06:22:25;15.13;;;10.97;;
1613;SDS011;800;48.824;9.346;2024-03-02T06:24:51;14.20;;;10.07;;
1613;SDS011;800;48.824;9.346;2024-03-02T06:27:16;14.40;;;11.13;;
1613;SDS011;800;48.824;9.346;2024-03-02T06:29:42;13.87;;;9.97;;
1613;SDS011;800;48.824;9.346;2024-03-02T06:32:07;13.53;;;11.40;;
1613;SDS011;800;48.824;9.346;2024-03-02T06:34:33;12.77;;;10.40;;
1613;SDS011;800;48.824;9.346;2024-03-02T06:36:59;13.90;;;10.90;;
1613;SDS011;800;48.824;9.346;2024-03-02T06:39:24;14.00;;;10.20;;
1613;SDS011;800;48.824;9.346;2024-03-02T06:41:50;15.10;;;10.60;;
1613;SDS011;800;48.824;9.346;2024-03-02T06:44:16;12.10;;;10.10;;
1613;SDS011;800;48.824;9.346;2024-03-02T06:46:42;14.03;;;11.00;;
1613;SDS011;800;48.824;9.346;2024-03-02T06:49:07;13.87;;;10.50;;
1613;SDS011;800;48.824;9.346;2024-03-02T06:51:35;12.43;;;9.57;;
1613;SDS011;800;48.824;9.346;2024-03-02T06:54:01;12.27;;;10.47;;
1613;SDS011;800;48.824;9.346;2024-03-02T06:56:26;12.77;;;10.47;;
1613;SDS011;800;48.824;9.346;2024-03-02T06:58:52;12.23;;;9.97;;
1613;SDS011;800;48.824;9.346;2024-03-02T07:01:17;14.60;;;10.87;;
1613;SDS011;800;48.824;9.346;2024-03-02T07:03:43;13.20;;;10.83;;
1613;SDS011;800;48.824;9.346;2024-03-02T07:06:09;17.17;;;12.47;;
1613;SDS011;800;48.824;9.346;2024-03-02T07:08:34;13.00;;;10.63;;
1613;SDS011;800;48.824;9.346;2024-03-02T07:11:00;14.83;;;11.97;;
1613;SDS011;800;48.824;9.346;2024-03-02T07:13:25;14.17;;;11.07;;
1613;SDS011;800;48.824;9.346;2024-03-02T07:15:51;13.03;;;11.13;;
1613;SDS011;800;48.824;9.346;2024-03-02T07:18:35;12.37;;;9.30;;
1613;SDS011;800;48.824;9.346;2024-03-02T07:21:07;14.00;;;10.97;;
1613;SDS011;800;48.824;9.346;2024-03-02T07:23:32;13.77;;;11.03;;
1613;SDS011;800;48.824;9.346;2024-03-02T07:25:59;15.00;;;10.27;;
1613;SDS011;800;48.824;9.346;2024-03-02T07:28:26;14.10;;;10.20;;
1613;SDS011;800;48.824;9.346;2024-03-02T07:30:59;14.23;;;10.60;;
1613;SDS011;800;48.824;9.346;2024-03-02T07:33:24;15.57;;;10.10;;
1613;SDS011;800;48.824;9.346;2024-03-02T07:35:50;21.03;;;10.70;;
1613;SDS011;800;48.824;9.346;2024-03-02T07:38:16;15.30;;;10.80;;
1613;SDS011;800;48.824;9.346;2024-03-02T07:40:42;13.27;;;10.97;;
1613;SDS011;800;48.824;9.346;2024-03-02T07:43:08;15.30;;;11.40;;
1613;SDS011;800;48.824;9.346;2024-03-02T07:45:33;14.80;;;11.60;;
1613;SDS011;800;48.824;9.346;2024-03-02T07:48:01;13.40;;;10.40;;
1613;SDS011;800;48.824;9.346;2024-03-02T07:50:29;12.20;;;10.50;;
1613;SDS011;800;48.824;9.346;2024-03-02T07:52:55;14.93;;;11.00;;
1613;SDS011;800;48.824;9.346;2024-03-02T07:55:20;10.93;;;9.70;;
1613;SDS011;800;48.824;9.346;2024-03-02T07:57:46;12.30;;;10.40;;
1613;SDS011;800;48.824;9.346;2024-03-02T08:00:12;11.10;;;9.57;;
1613;SDS011;800;48.824;9.346;2024-03-02T08:02:39;15.50;;;11.13;;
1613;SDS011;800;48.824;9.346;2024-03-02T08:05:05;10.63;;;9.27;;
1613;SDS011;800;48.824;9.346;2024-03-02T08:07:31;14.67;;;10.63;;
1613;SDS011;800;48.824;9.346;2024-03-02T08:09:57;12.70;;;10.80;;
1613;SDS011;800;48.824;9.346;2024-03-02T08:12:22;12.70;;;9.57;;
1613;SDS011;800;48.824;9.346;2024-03-02T08:14:48;14.03;;;10.60;;
1613;SDS011;800;48.824;9.346;2024-03-02T08:17:14;12.30;;;9.87;;
1613;SDS011;800;48.824;9.346;2024-03-02T08:19:39;12.27;;;9.70;;
1613;SDS011;800;48.824;9.346;2024-03-02T08:22:05;13.37;;;9.30;;
1613;SDS011;800;48.824;9.346;2024-03-02T08:24:32;15.63;;;10.60;;
1613;SDS011;800;48.824;9.346;2024-03-02T08:26:58;9.40;;;8.40;;
1613;SDS011;800;48.824;9.346;2024-03-02T08:29:25;10.73;;;9.47;;
1613;SDS011;800;48.824;9.346;2024-03-02T08:31:50;11.23;;;8.80;;
1613;SDS011;800;48.824;9.346;2024-03-02T08:34:16;10.50;;;9.30;;
1613;SDS011;800;48.824;9.346;2024-03-02T08:36:41;11.53;;;9.20;;
1613;SDS011;800;48.824;9.346;2024-03-02T08:39:08;12.60;;;10.30;;
1613;SDS011;800;48.824;9.346;2024-03-02T08:41:40;12.60;;;9.80;;
1613;SDS011;800;48.824;9.346;2024-03-02T08:44:07;12.53;;;9.13;;
1613;SDS011;800;48.824;9.346;2024-03-02T08:46:33;11.00;;;9.13;;
1613;SDS011;800;48.824;9.346;2024-03-02T08:48:58;12.03;;;8.70;;
1613;SDS011;800;48.824;9.346;2024-03-02T08:51:24;9.30;;;8.33;;
1613;SDS011;800;48.824;9.346;2024-03-02T08:53:50;10.53;;;9.20;;
1613;SDS011;800;48.824;9.346;2024-03-02T08:56:15;10.97;;;7.80;;
1613;SDS011;800;48.824;9.346;2024-03-02T08:58:41;8.53;;;7.67;;
1613;SDS011;800;48.824;9.346;2024-03-02T09:01:07;10.73;;;8.37;;
1613;SDS011;800;48.824;9.346;2024-03-02T09:03:33;12.13;;;8.23;;
1613;SDS011;800;48.824;9.346;2024-03-02T09:06:00;9.57;;;7.97;;
1613;SDS011;800;48.824;9.346;2024-03-02T09:08:25;8.57;;;6.83;;
1613;SDS011;800;48.824;9.346;2024-03-02T09:10:51;14.00;;;8.07;;
1613;SDS011;800;48.824;9.346;2024-03-02T09:13:17;9.13;;;7.80;;
1613;SDS011;800;48.824;9.346;2024-03-02T09:15:42;8.37;;;7.43;;
1613;SDS011;800;48.824;9.346;2024-03-02T09:18:09;8.33;;;7.40;;
1613;SDS011;800;48.824;9.346;2024-03-02T09:20:35;9.50;;;8.00;;
1613;SDS011;800;48.824;9.346;2024-03-02T09:23:01;8.60;;;7.30;;
1613;SDS011;800;48.824;9.346;2024-03-02T09:25:26;9.40;;;6.47;;
1613;SDS011;800;48.824;9.346;2024-03-02T09:27:52;8.07;;;6.47;;
1613;SDS011;800;48.824;9.346;2024-03-02T09:30:17;7.47;;;6.70;;
1613;SDS011;800;48.824;9.346;2024-03-02T09:32:43;6.60;;;5.90;;
1613;SDS011;800;48.824;9.346;2024-03-02T09:35:08;8.03;;;6.00;;
1613;SDS011;800;48.824;9.346;2024-03-02T09:37:34;7.80;;;6.70;;
1613;SDS011;800;48.824;9.346;2024-03-02T09:40:01;6.93;;;6.20;;
1613;SDS011;800;48.824;9.346;2024-03-02T09:42:26;6.87;;;5.93;;
1613;SDS011;800;48.824;9.346;2024-03-02T09:44:52;6.60;;;6.00;;
1613;SDS011;800;48.824;9.346;2024-03-02T09:47:18;7.37;;;6.67;;
1613;SDS011;800;48.824;9.346;2024-03-02T09:49:44;8.30;;;6.60;;
1613;SDS011;800;48.824;9.346;2024-03-02T09:52:10;6.33;;;5.73;;
1613;SDS011;800;48.824;9.346;2024-03-02T09:54:36;8.77;;;6.70;;
1613;SDS011;800;48.824;9.346;2024-03-02T09:57:01;6.50;;;5.73;;
1613;SDS011;800;48.824;9.346;2024-03-02T09:59:28;5.87;;;5.37;;
1613;SDS011;800;48.824;9.346;2024-03-02T10:02:01;4.80;;;4.30;;
1613;SDS011;800;48.824;9.346;2024-03-02T10:04:28;5.20;;;4.70;;
1613;SDS011;800;48.824;9.346;2024-03-02T10:07:14;7.50;;;5.83;;
1613;SDS011;800;48.824;9.346;2024-03-02T10:09:42;9.13;;;4.67;;
1613;SDS011;800;48.824;9.346;2024-03-02T10:12:09;5.60;;;5.10;;
1613;SDS011;800;48.824;9.346;2024-03-02T10:14:36;4.87;;;4.33;;
1613;SDS011;800;48.824;9.346;2024-03-02T10:17:03;4.10;;;3.40;;
1613;SDS011;800;48.824;9.346;2024-03-02T10:19:31;3.33;;;3.03;;
1613;SDS011;800;48.824;9.346;2024-03-02T10:21:58;3.63;;;3.33;;
1613;SDS011;800;48.824;9.346;2024-03-02T10:24:24;4.47;;;3.27;;
1613;SDS011;800;48.824;9.346;2024-03-02T10:26:50;3.30;;;3.00;;
1613;SDS011;800;48.824;9.346;2024-03-02T10:29:17;3.20;;;3.00;;
1613;SDS011;800;48.824;9.346;2024-03-02T10:31:44;3.17;;;2.87;;
1613;SDS011;800;48.824;9.346;2024-03-02T10:34:13;3.83;;;3.43;;
1613;SDS011;800;48.824;9.346;2024-03-02T10:36:41;5.63;;;3.43;;
1613;SDS011;800;48.824;9.346;2024-03-02T10:39:08;2.70;;;2.50;;
1613;SDS011;800;48.824;9.346;2024-03-02T10:41:36;3.43;;;3.07;;
1613;SDS011;800;48.824;9.346;2024-03-02T10:44:03;3.30;;;3.00;;
1613;SDS011;800;48.824;9.346;2024-03-02T10:46:30;4.73;;;3.13;;
1613;SDS011;800;48.824;9.346;2024-03-02T10:48:57;3.43;;;2.83;;
1613;SDS011;800;48.824;9.346;2024-03-02T10:51:26;3.30;;;3.00;;
1613;SDS011;800;48.824;9.346;2024-03-02T10:53:54;3.30;;;3.00;;
1613;SDS011;800;48.824;9.346;2024-03-02T10:56:27;3.40;;;3.10;;
1613;SDS011;800;48.824;9.346;2024-03-02T10:59:16;4.50;;;2.50;;
1613;SDS011;800;48.824;9.346;2024-03-02T11:01:57;3.77;;;3.03;;
1613;SDS011;800;48.824;9.346;2024-03-02T11:04:24;3.03;;;2.83;;
1613;SDS011;800;48.824;9.346;2024-03-02T11:06:51;3.10;;;2.90;;
1613;SDS011;800;48.824;9.346;2024-03-02T11:09:20;4.10;;;3.07;;
1613;SDS011;800;48.824;9.346;2024-03-02T11:11:49;2.97;;;2.70;;
1613;SDS011;800;48.824;9.346;2024-03-02T11:14:23;3.10;;;2.80;;
1613;SDS011;800;48.824;9.346;2024-03-02T11:16:50;3.20;;;2.73;;
1613;SDS011;800;48.824;9.346;2024-03-02T11:19:17;2.90;;;2.70;;
1613;SDS011;800;48.824;9.346;2024-03-02T11:21:43;2.70;;;2.00;;
1613;SDS011;800;48.824;9.346;2024-03-02T11:26:50;2.33;;;2.13;;
1613;SDS011;800;48.824;9.346;2024-03-02T11:32:00;2.83;;;2.60;;
1613;SDS011;800;48.824;9.346;2024-03-02T11:36:55;2.67;;;2.47;;
1613;SDS011;800;48.824;9.346;2024-03-02T11:39:21;2.43;;;2.23;;
1613;SDS011;800;48.824;9.346;2024-03-02T11:41:47;4.00;;;2.60;;
1613;SDS011;800;48.824;9.346;2024-03-02T11:44:13;2.13;;;2.00;;
1613;SDS011;800;48.824;9.346;2024-03-02T11:46:40;1.90;;;1.80;;
1613;SDS011;800;48.824;9.346;2024-03-02T11:49:05;3.63;;;2.10;;
1613;SDS011;800;48.824;9.346;2024-03-02T11:51:32;1.87;;;1.77;;
1613;SDS011;800;48.824;9.346;2024-03-02T11:53:59;1.83;;;1.73;;
1613;SDS011;800;48.824;9.346;2024-03-02T11:56:26;2.60;;;1.70;;
1613;SDS011;800;48.824;9.346;2024-03-02T11:58:53;1.37;;;1.27;;
1613;SDS011;800;48.824;9.346;2024-03-02T12:01:19;1.30;;;1.20;;
1613;SDS011;800;48.824;9.346;2024-03-02T12:03:45;1.70;;;1.60;;
1613;SDS011;800;48.824;9.346;2024-03-02T12:06:11;1.80;;;1.63;;
1613;SDS011;800;48.824;9.346;2024-03-02T12:08:38;4.37;;;1.50;;
1613;SDS011;800;48.824;9.346;2024-03-02T12:11:03;1.60;;;1.50;;
1613;SDS011;800;48.824;9.346;2024-03-02T12:13:31;1.20;;;1.10;;
1613;SDS011;800;48.824;9.346;2024-03-02T12:15:57;1.37;;;1.27;;
1613;SDS011;800;48.824;9.346;2024-03-02T12:18:23;1.40;;;1.30;;
1613;SDS011;800;48.824;9.346;2024-03-02T12:20:50;1.70;;;1.23;;
1613;SDS011;800;48.824;9.346;2024-03-02T12:23:23;1.67;;;1.30;;
1613;SDS011;800;48.824;9.346;2024-03-02T12:25:49;1.13;;;1.03;;
1613;SDS011;800;48.824;9.346;2024-03-02T12:28:15;1.20;;;1.10;;
1613;SDS011;800;48.824;9.346;2024-03-02T12:30:41;1.50;;;1.40;;
1613;SDS011;800;48.824;9.346;2024-03-02T12:33:07;1.40;;;1.30;;
1613;SDS011;800;48.824;9.346;2024-03-02T12:35:32;1.33;;;1.23;;
1613;SDS011;800;48.824;9.346;2024-03-02T12:37:58;1.20;;;1.10;;
1613;SDS011;800;48.824;9.346;2024-03-02T12:40:23;1.27;;;1.17;;
1613;SDS011;800;48.824;9.346;2024-03-02T12:42:49;2.03;;;1.40;;
1613;SDS011;800;48.824;9.346;2024-03-02T12:45:15;1.47;;;1.37;;
1613;SDS011;800;48.824;9.346;2024-03-02T12:47:48;1.70;;;1.60;;
1613;SDS011;800;48.824;9.346;2024-03-02T12:50:15;1.60;;;1.50;;
1613;SDS011;800;48.824;9.346;2024-03-02T12:52:41;2.30;;;1.37;;
1613;SDS011;800;48.824;9.346;2024-03-02T12:55:06;1.50;;;1.40;;
1613;SDS011;800;48.824;9.346;2024-03-02T12:57:32;1.37;;;1.27;;
1613;SDS011;800;48.824;9.346;2024-03-02T13:00:05;2.00;;;1.90;;
1613;SDS011;800;48.824;9.346;2024-03-02T13:02:35;1.87;;;1.73;;
1613;SDS011;800;48.824;9.346;2024-03-02T13:05:01;2.10;;;1.90;;
1613;SDS011;800;48.824;9.346;2024-03-02T13:07:28;1.87;;;1.77;;
1613;SDS011;800;48.824;9.346;2024-03-02T13:09:55;2.10;;;1.90;;
1613;SDS011;800;48.824;9.346;2024-03-02T13:12:21;2.83;;;1.50;;
1613;SDS011;800;48.824;9.346;2024-03-02T13:14:49;1.37;;;1.27;;
1613;SDS011;800;48.824;9.346;2024-03-02T13:17:18;1.80;;;1.70;;
1613;SDS011;800;48.824;9.346;2024-03-02T13:19:51;1.67;;;1.57;;
1613;SDS011;800;48.824;9.346;2024-03-02T13:22:17;1.90;;;1.80;;
1613;SDS011;800;48.824;9.346;2024-03-02T13:24:43;2.03;;;1.50;;
1613;SDS011;800;48.824;9.346;2024-03-02T13:27:08;1.60;;;1.50;;
1613;SDS011;800;48.824;9.346;2024-03-02T13:29:34;1.60;;;1.50;;
1613;SDS011;800;48.824;9.346;2024-03-02T13:32:00;1.43;;;1.33;;
1613;SDS011;800;48.824;9.346;2024-03-02T13:34:25;1.50;;;1.40;;
1613;SDS011;800;48.824;9.346;2024-03-02T13:36:51;2.07;;;1.90;;
1613;SDS011;800;48.824;9.346;2024-03-02T13:39:16;2.13;;;1.90;;
1613;SDS011;800;48.824;9.346;2024-03-02T13:41:42;1.57;;;1.47;;
1613;SDS011;800;48.824;9.346;2024-03-02T13:44:10;1.50;;;1.40;;
1613;SDS011;800;48.824;9.346;2024-03-02T13:46:36;1.60;;;1.50;;
1613;SDS011;800;48.824;9.346;2024-03-02T13:49:01;2.50;;;1.43;;
1613;SDS011;800;48.824;9.346;2024-03-02T13:51:27;1.60;;;1.50;;
1613;SDS011;800;48.824;9.346;2024-03-02T13:53:53;1.50;;;1.30;;
1613;SDS011;800;48.824;9.346;2024-03-02T13:56:18;1.13;;;1.07;;
1613;SDS011;800;48.824;9.346;2024-03-02T13:58:44;1.30;;;1.10;;
1613;SDS011;800;48.824;9.346;2024-03-02T14:01:11;2.80;;;1.43;;
1613;SDS011;800;48.824;9.346;2024-03-02T14:03:36;1.47;;;1.37;;
1613;SDS011;800;48.824;9.346;2024-03-02T14:06:02;1.80;;;1.70;;
1613;SDS011;800;48.824;9.346;2024-03-02T14:08:28;1.70;;;1.60;;
1613;SDS011;800;48.824;9.346;2024-03-02T14:10:54;1.37;;;1.27;;
1613;SDS011;800;48.824;9.346;2024-03-02T14:13:22;1.70;;;1.37;;
1613;SDS011;800;48.824;9.346;2024-03-02T14:15:48;1.73;;;1.63;;
1613;SDS011;800;48.824;9.346;2024-03-02T14:18:13;1.33;;;1.20;;
1613;SDS011;800;48.824;9.346;2024-03-02T14:20:39;1.10;;;1.00;;
1613;SDS011;800;48.824;9.346;2024-03-02T14:23:04;1.83;;;1.53;;
1613;SDS011;800;48.824;9.346;2024-03-02T14:25:30;2.30;;;2.10;;
1613;SDS011;800;48.824;9.346;2024-03-02T14:27:58;1.07;;;0.97;;
1613;SDS011;800;48.824;9.346;2024-03-02T14:30:24;1.47;;;1.23;;
1613;SDS011;800;48.824;9.346;2024-03-02T14:32:49;1.30;;;1.20;;
1613;SDS011;800;48.824;9.346;2024-03-02T14:35:16;2.70;;;1.63;;
1613;SDS011;800;48.824;9.346;2024-03-02T14:37:41;1.20;;;1.10;;
1613;SDS011;800;48.824;9.346;2024-03-02T14:40:07;1.13;;;1.10;;
1613;SDS011;800;48.824;9.346;2024-03-02T14:42:34;1.47;;;1.23;;
1613;SDS011;800;48.824;9.346;2024-03-02T14:45:00;1.27;;;1.17;;
1613;SDS011;800;48.824;9.346;2024-03-02T14:47:28;1.07;;;1.03;;
1613;SDS011;800;48.824;9.346;2024-03-02T14:49:54;1.30;;;1.20;;
1613;SDS011;800;48.824;9.346;2024-03-02T14:52:20;1.30;;;1.17;;
1613;SDS011;800;48.824;9.346;2024-03-02T14:54:46;1.27;;;1.17;;
1613;SDS011;800;48.824;9.346;2024-03-02T14:57:12;0.90;;;0.90;;
1613;SDS011;800;48.824;9.346;2024-03-02T14:59:37;1.10;;;0.90;;
1613;SDS011;800;48.824;9.346;2024-03-02T15:02:03;1.07;;;0.90;;
1613;SDS011;800;48.824;9.346;2024-03-02T15:04:28;1.30;;;1.20;;
1613;SDS011;800;48.824;9.346;2024-03-02T15:06:54;1.10;;;1.00;;
1613;SDS011;800;48.824;9.346;2024-03-02T15:09:20;1.30;;;1.20;;
1613;SDS011;800;48.824;9.346;2024-03-02T15:11:46;1.40;;;1.30;;
1613;SDS011;800;48.824;9.346;2024-03-02T15:14:12;1.50;;;1.27;;
1613;SDS011;800;48.824;9.346;2024-03-02T15:16:37;1.30;;;1.20;;
1613;SDS011;800;48.824;9.346;2024-03-02T15:19:03;1.40;;;1.30;;